Mississippi River (Missouri), Grafton (05587450)

StateMissouriLatestUnknown (0 cfs)
RiverMississippi RiverRatingObservedEstimated
Updated2020-08-14 6:30 (18 minutes ago)Flood - The river is flooding. Obstacles can be treacherous or deadly. The river should be avoided at this stage for casual trips and definitely for the inexperienced. Trips should be attempted only with protective gear and equipment.Flood(none)(none)
Discharge(none) (median: 89400 cfs)High - The river is high and potentially dangerous, especially for the young and / or inexperienced. Normal stream obstacles are sometimes difficult to navigate. Extended distances can be attempted, but canoe travel may not be advisable.High(none)(none)
Height14.95 feetGood - Conditions are ideal for a canoe or kayak. Boats typically will drag on fewer than one-quarter of riffles, if at all, and portages are unnecessary or rare. Normal float lengths can be attempted without a problem.Good(none)(none)
TrendFalling (falling over 24 hours)Low - River is low but can still be floated. Some riffles are okay but most come with significant dragging and might need a portage. Float lengths should be reduced to accommodate low flow, dragging, and portages.Low(none)(none)
USGSExternal icon USGS Site (External icon Google Maps)Poor - River is too low to float comfortably. Most or all riffles will drag or must be portaged and some obstacles (such as slick shelf rock) cause undue problems. Avoid the river at this stage for casual paddling trips.Poor(none)(none)

Trending Data

Plot Image

Trips for Mississippi River (Missouri), Grafton (05587450)

DateStartEndDistanceConditionDischargeHeightFishingDetails

A total of 0 rows are displayed.

Condition Descriptions

Fishing Conditions

Fish Species

Notes

Classic Trip List

The classic River Trips application is still available for use. It is updated with the new system using a data retrofit. It is no longer maintained. The original River Trips application is no longer updated (as of 1 Dec 2016) but can be checked for errors or for the condition of the data before it was converted to the new system.

Gauge Data Table

ObservationHeightDischargeMaximum
Discharge
Minimum
Discharge
Mean
Discharge
P05P10P20P25P50
(Median)
P75P80P90P95
2020-08-14 06:30 14.95 404000 (1993) 28100 (1989) 95400 32300 37100 44800 50500 89400 102000 108000 140000 321000
2020-08-14 06:00 14.94 47300 404000 (1993) 28100 (1989) 95400 32300 37100 44800 50500 89400 102000 108000 140000 321000
2020-08-14 05:30 14.94 47100 404000 (1993) 28100 (1989) 95400 32300 37100 44800 50500 89400 102000 108000 140000 321000
2020-08-14 05:00 14.94 404000 (1993) 28100 (1989) 95400 32300 37100 44800 50500 89400 102000 108000 140000 321000
2020-08-14 04:30 14.94 47300 404000 (1993) 28100 (1989) 95400 32300 37100 44800 50500 89400 102000 108000 140000 321000
2020-08-14 04:00 14.93 46300 404000 (1993) 28100 (1989) 95400 32300 37100 44800 50500 89400 102000 108000 140000 321000
2020-08-14 03:30 14.94 47500 404000 (1993) 28100 (1989) 95400 32300 37100 44800 50500 89400 102000 108000 140000 321000
2020-08-14 03:00 14.93 46500 404000 (1993) 28100 (1989) 95400 32300 37100 44800 50500 89400 102000 108000 140000 321000
2020-08-14 02:30 14.93 46500 404000 (1993) 28100 (1989) 95400 32300 37100 44800 50500 89400 102000 108000 140000 321000
2020-08-14 02:00 14.93 46500 404000 (1993) 28100 (1989) 95400 32300 37100 44800 50500 89400 102000 108000 140000 321000
2020-08-14 01:30 14.94 404000 (1993) 28100 (1989) 95400 32300 37100 44800 50500 89400 102000 108000 140000 321000
2020-08-14 01:00 14.92 45600 404000 (1993) 28100 (1989) 95400 32300 37100 44800 50500 89400 102000 108000 140000 321000
2020-08-14 00:30 14.92 45400 404000 (1993) 28100 (1989) 95400 32300 37100 44800 50500 89400 102000 108000 140000 321000
2020-08-14 00:00 14.92 45800 404000 (1993) 28100 (1989) 95400 32300 37100 44800 50500 89400 102000 108000 140000 321000
2020-08-13 23:30 14.91 409000 (1993) 29400 (1989) 98000 32800 38200 47800 58000 89400 100000 116000 146000 319000
2020-08-13 23:00 14.94 47900 409000 (1993) 29400 (1989) 98000 32800 38200 47800 58000 89400 100000 116000 146000 319000
2020-08-13 22:30 14.92 45600 409000 (1993) 29400 (1989) 98000 32800 38200 47800 58000 89400 100000 116000 146000 319000
2020-08-13 22:00 14.93 46500 409000 (1993) 29400 (1989) 98000 32800 38200 47800 58000 89400 100000 116000 146000 319000
2020-08-13 21:30 14.94 47500 409000 (1993) 29400 (1989) 98000 32800 38200 47800 58000 89400 100000 116000 146000 319000
2020-08-13 21:00 14.94 47700 409000 (1993) 29400 (1989) 98000 32800 38200 47800 58000 89400 100000 116000 146000 319000
2020-08-13 20:30 14.94 47500 409000 (1993) 29400 (1989) 98000 32800 38200 47800 58000 89400 100000 116000 146000 319000
2020-08-13 20:00 14.94 47500 409000 (1993) 29400 (1989) 98000 32800 38200 47800 58000 89400 100000 116000 146000 319000
2020-08-13 19:30 14.94 409000 (1993) 29400 (1989) 98000 32800 38200 47800 58000 89400 100000 116000 146000 319000
2020-08-13 19:00 14.96 49400 409000 (1993) 29400 (1989) 98000 32800 38200 47800 58000 89400 100000 116000 146000 319000
2020-08-13 18:30 14.96 49600 409000 (1993) 29400 (1989) 98000 32800 38200 47800 58000 89400 100000 116000 146000 319000
2020-08-13 18:00 14.95 409000 (1993) 29400 (1989) 98000 32800 38200 47800 58000 89400 100000 116000 146000 319000
2020-08-13 17:30 14.96 409000 (1993) 29400 (1989) 98000 32800 38200 47800 58000 89400 100000 116000 146000 319000
2020-08-13 17:00 14.96 409000 (1993) 29400 (1989) 98000 32800 38200 47800 58000 89400 100000 116000 146000 319000
2020-08-13 16:30 14.99 53100 409000 (1993) 29400 (1989) 98000 32800 38200 47800 58000 89400 100000 116000 146000 319000
2020-08-13 16:00 15.00 54000 409000 (1993) 29400 (1989) 98000 32800 38200 47800 58000 89400 100000 116000 146000 319000
2020-08-13 15:30 15.01 54800 409000 (1993) 29400 (1989) 98000 32800 38200 47800 58000 89400 100000 116000 146000 319000
2020-08-13 15:00 15.02 55400 409000 (1993) 29400 (1989) 98000 32800 38200 47800 58000 89400 100000 116000 146000 319000
2020-08-13 14:30 15.02 409000 (1993) 29400 (1989) 98000 32800 38200 47800 58000 89400 100000 116000 146000 319000
2020-08-13 14:00 15.03 409000 (1993) 29400 (1989) 98000 32800 38200 47800 58000 89400 100000 116000 146000 319000
2020-08-13 13:30 15.06 58300 409000 (1993) 29400 (1989) 98000 32800 38200 47800 58000 89400 100000 116000 146000 319000
2020-08-13 13:00 15.05 57400 409000 (1993) 29400 (1989) 98000 32800 38200 47800 58000 89400 100000 116000 146000 319000
2020-08-13 12:30 15.09 409000 (1993) 29400 (1989) 98000 32800 38200 47800 58000 89400 100000 116000 146000 319000
2020-08-13 12:00 15.06 58000 409000 (1993) 29400 (1989) 98000 32800 38200 47800 58000 89400 100000 116000 146000 319000
2020-08-13 11:30 15.06 57800 409000 (1993) 29400 (1989) 98000 32800 38200 47800 58000 89400 100000 116000 146000 319000
2020-08-13 11:00 15.07 58400 409000 (1993) 29400 (1989) 98000 32800 38200 47800 58000 89400 100000 116000 146000 319000
2020-08-13 10:30 15.06 57300 409000 (1993) 29400 (1989) 98000 32800 38200 47800 58000 89400 100000 116000 146000 319000
2020-08-13 10:00 15.07 57900 409000 (1993) 29400 (1989) 98000 32800 38200 47800 58000 89400 100000 116000 146000 319000
2020-08-13 09:30 15.07 57900 409000 (1993) 29400 (1989) 98000 32800 38200 47800 58000 89400 100000 116000 146000 319000
2020-08-13 09:00 15.08 409000 (1993) 29400 (1989) 98000 32800 38200 47800 58000 89400 100000 116000 146000 319000
2020-08-13 08:30 15.09 59100 409000 (1993) 29400 (1989) 98000 32800 38200 47800 58000 89400 100000 116000 146000 319000
2020-08-13 08:00 15.09 58800 409000 (1993) 29400 (1989) 98000 32800 38200 47800 58000 89400 100000 116000 146000 319000
2020-08-13 07:30 15.10 59400 409000 (1993) 29400 (1989) 98000 32800 38200 47800 58000 89400 100000 116000 146000 319000
2020-08-13 07:00 15.09 409000 (1993) 29400 (1989) 98000 32800 38200 47800 58000 89400 100000 116000 146000 319000
2020-08-13 06:30 15.11 59700 409000 (1993) 29400 (1989) 98000 32800 38200 47800 58000 89400 100000 116000 146000 319000
2020-08-13 06:00 15.11 60000 409000 (1993) 29400 (1989) 98000 32800 38200 47800 58000 89400 100000 116000 146000 319000
2020-08-13 05:30 15.12 60600 409000 (1993) 29400 (1989) 98000 32800 38200 47800 58000 89400 100000 116000 146000 319000
2020-08-13 05:00 15.13 60900 409000 (1993) 29400 (1989) 98000 32800 38200 47800 58000 89400 100000 116000 146000 319000
2020-08-13 04:30 15.14 61500 409000 (1993) 29400 (1989) 98000 32800 38200 47800 58000 89400 100000 116000 146000 319000
2020-08-13 04:00 15.14 61700 409000 (1993) 29400 (1989) 98000 32800 38200 47800 58000 89400 100000 116000 146000 319000
2020-08-13 03:30 15.14 61700 409000 (1993) 29400 (1989) 98000 32800 38200 47800 58000 89400 100000 116000 146000 319000
2020-08-13 03:00 15.11 409000 (1993) 29400 (1989) 98000 32800 38200 47800 58000 89400 100000 116000 146000 319000
2020-08-13 02:30 15.14 61500 409000 (1993) 29400 (1989) 98000 32800 38200 47800 58000 89400 100000 116000 146000 319000
2020-08-13 02:00 15.14 61500 409000 (1993) 29400 (1989) 98000 32800 38200 47800 58000 89400 100000 116000 146000 319000
2020-08-13 01:30 15.15 62300 409000 (1993) 29400 (1989) 98000 32800 38200 47800 58000 89400 100000 116000 146000 319000
2020-08-13 01:00 15.14 61700 409000 (1993) 29400 (1989) 98000 32800 38200 47800 58000 89400 100000 116000 146000 319000
2020-08-13 00:30 15.14 61700 409000 (1993) 29400 (1989) 98000 32800 38200 47800 58000 89400 100000 116000 146000 319000
2020-08-13 00:00 15.12 59800 409000 (1993) 29400 (1989) 98000 32800 38200 47800 58000 89400 100000 116000 146000 319000
2020-08-12 23:30 15.14 61500 417000 (1993) 35500 (1989) 102000 37300 40800 51700 63400 90600 113000 120000 147000 320000
2020-08-12 23:00 15.13 60600 417000 (1993) 35500 (1989) 102000 37300 40800 51700 63400 90600 113000 120000 147000 320000
2020-08-12 22:30 15.13 60600 417000 (1993) 35500 (1989) 102000 37300 40800 51700 63400 90600 113000 120000 147000 320000
2020-08-12 22:00 15.13 417000 (1993) 35500 (1989) 102000 37300 40800 51700 63400 90600 113000 120000 147000 320000
2020-08-12 21:30 15.13 417000 (1993) 35500 (1989) 102000 37300 40800 51700 63400 90600 113000 120000 147000 320000
2020-08-12 21:00 15.12 417000 (1993) 35500 (1989) 102000 37300 40800 51700 63400 90600 113000 120000 147000 320000
2020-08-12 20:30 15.16 417000 (1993) 35500 (1989) 102000 37300 40800 51700 63400 90600 113000 120000 147000 320000
2020-08-12 20:00 15.50 417000 (1993) 35500 (1989) 102000 37300 40800 51700 63400 90600 113000 120000 147000 320000
2020-08-12 19:30 15.13 59300 417000 (1993) 35500 (1989) 102000 37300 40800 51700 63400 90600 113000 120000 147000 320000
2020-08-12 19:00 15.14 60700 417000 (1993) 35500 (1989) 102000 37300 40800 51700 63400 90600 113000 120000 147000 320000
2020-08-12 18:30 15.14 417000 (1993) 35500 (1989) 102000 37300 40800 51700 63400 90600 113000 120000 147000 320000
2020-08-12 18:00 15.12 59500 417000 (1993) 35500 (1989) 102000 37300 40800 51700 63400 90600 113000 120000 147000 320000
2020-08-12 17:30 15.12 59800 417000 (1993) 35500 (1989) 102000 37300 40800 51700 63400 90600 113000 120000 147000 320000
2020-08-12 17:00 15.10 58100 417000 (1993) 35500 (1989) 102000 37300 40800 51700 63400 90600 113000 120000 147000 320000
2020-08-12 16:30 15.10 58300 417000 (1993) 35500 (1989) 102000 37300 40800 51700 63400 90600 113000 120000 147000 320000
2020-08-12 16:00 15.10 58900 417000 (1993) 35500 (1989) 102000 37300 40800 51700 63400 90600 113000 120000 147000 320000
2020-08-12 15:30 15.08 57400 417000 (1993) 35500 (1989) 102000 37300 40800 51700 63400 90600 113000 120000 147000 320000
2020-08-12 15:00 15.08 57400 417000 (1993) 35500 (1989) 102000 37300 40800 51700 63400 90600 113000 120000 147000 320000
2020-08-12 14:30 15.08 57400 417000 (1993) 35500 (1989) 102000 37300 40800 51700 63400 90600 113000 120000 147000 320000
2020-08-12 14:00 15.08 57700 417000 (1993) 35500 (1989) 102000 37300 40800 51700 63400 90600 113000 120000 147000 320000
2020-08-12 13:30 15.08 417000 (1993) 35500 (1989) 102000 37300 40800 51700 63400 90600 113000 120000 147000 320000
2020-08-12 13:00 15.11 417000 (1993) 35500 (1989) 102000 37300 40800 51700 63400 90600 113000 120000 147000 320000
2020-08-12 12:30 15.08 417000 (1993) 35500 (1989) 102000 37300 40800 51700 63400 90600 113000 120000 147000 320000
2020-08-12 12:00 15.07 417000 (1993) 35500 (1989) 102000 37300 40800 51700 63400 90600 113000 120000 147000 320000
2020-08-12 11:30 15.38 417000 (1993) 35500 (1989) 102000 37300 40800 51700 63400 90600 113000 120000 147000 320000
2020-08-12 11:00 15.05 56200 417000 (1993) 35500 (1989) 102000 37300 40800 51700 63400 90600 113000 120000 147000 320000
2020-08-12 10:30 15.06 56800 417000 (1993) 35500 (1989) 102000 37300 40800 51700 63400 90600 113000 120000 147000 320000
2020-08-12 10:00 15.08 58000 417000 (1993) 35500 (1989) 102000 37300 40800 51700 63400 90600 113000 120000 147000 320000
2020-08-12 09:30 15.06 55500 417000 (1993) 35500 (1989) 102000 37300 40800 51700 63400 90600 113000 120000 147000 320000
2020-08-12 09:00 15.03 52800 417000 (1993) 35500 (1989) 102000 37300 40800 51700 63400 90600 113000 120000 147000 320000
2020-08-12 08:30 15.05 55200 417000 (1993) 35500 (1989) 102000 37300 40800 51700 63400 90600 113000 120000 147000 320000
2020-08-12 08:00 15.04 417000 (1993) 35500 (1989) 102000 37300 40800 51700 63400 90600 113000 120000 147000 320000
2020-08-12 07:30 15.02 52700 417000 (1993) 35500 (1989) 102000 37300 40800 51700 63400 90600 113000 120000 147000 320000
2020-08-12 07:00 15.02 417000 (1993) 35500 (1989) 102000 37300 40800 51700 63400 90600 113000 120000 147000 320000
2020-08-12 06:30 15.00 51600 417000 (1993) 35500 (1989) 102000 37300 40800 51700 63400 90600 113000 120000 147000 320000
2020-08-12 06:00 14.98 50000 417000 (1993) 35500 (1989) 102000 37300 40800 51700 63400 90600 113000 120000 147000 320000
2020-08-12 05:30 14.98 417000 (1993) 35500 (1989) 102000 37300 40800 51700 63400 90600 113000 120000 147000 320000
2020-08-12 05:00 14.96 48500 417000 (1993) 35500 (1989) 102000 37300 40800 51700 63400 90600 113000 120000 147000 320000
2020-08-12 04:30 14.96 417000 (1993) 35500 (1989) 102000 37300 40800 51700 63400 90600 113000 120000 147000 320000
2020-08-12 04:00 14.94 47100 417000 (1993) 35500 (1989) 102000 37300 40800 51700 63400 90600 113000 120000 147000 320000
2020-08-12 03:30 14.93 417000 (1993) 35500 (1989) 102000 37300 40800 51700 63400 90600 113000 120000 147000 320000
2020-08-12 03:00 14.91 44600 417000 (1993) 35500 (1989) 102000 37300 40800 51700 63400 90600 113000 120000 147000 320000
2020-08-12 02:30 14.89 42900 417000 (1993) 35500 (1989) 102000 37300 40800 51700 63400 90600 113000 120000 147000 320000
2020-08-12 02:00 14.88 42100 417000 (1993) 35500 (1989) 102000 37300 40800 51700 63400 90600 113000 120000 147000 320000
2020-08-12 01:30 14.88 417000 (1993) 35500 (1989) 102000 37300 40800 51700 63400 90600 113000 120000 147000 320000
2020-08-12 01:00 14.85 39800 417000 (1993) 35500 (1989) 102000 37300 40800 51700 63400 90600 113000 120000 147000 320000
2020-08-12 00:30 14.84 39100 417000 (1993) 35500 (1989) 102000 37300 40800 51700 63400 90600 113000 120000 147000 320000
2020-08-12 00:00 14.84 39500 417000 (1993) 35500 (1989) 102000 37300 40800 51700 63400 90600 113000 120000 147000 320000
2020-08-11 23:30 14.84 428000 (1993) 38600 (1989) 104000 39000 41300 57900 63800 86500 121000 131000 144000 325000
2020-08-11 23:00 14.83 38400 428000 (1993) 38600 (1989) 104000 39000 41300 57900 63800 86500 121000 131000 144000 325000
2020-08-11 22:30 14.82 37300 428000 (1993) 38600 (1989) 104000 39000 41300 57900 63800 86500 121000 131000 144000 325000
2020-08-11 22:00 14.82 37300 428000 (1993) 38600 (1989) 104000 39000 41300 57900 63800 86500 121000 131000 144000 325000
2020-08-11 21:30 14.82 428000 (1993) 38600 (1989) 104000 39000 41300 57900 63800 86500 121000 131000 144000 325000
2020-08-11 21:00 14.80 428000 (1993) 38600 (1989) 104000 39000 41300 57900 63800 86500 121000 131000 144000 325000
2020-08-11 20:30 14.80 428000 (1993) 38600 (1989) 104000 39000 41300 57900 63800 86500 121000 131000 144000 325000
2020-08-11 20:00 14.83 428000 (1993) 38600 (1989) 104000 39000 41300 57900 63800 86500 121000 131000 144000 325000
2020-08-11 19:30 14.84 428000 (1993) 38600 (1989) 104000 39000 41300 57900 63800 86500 121000 131000 144000 325000
2020-08-11 19:00 14.85 428000 (1993) 38600 (1989) 104000 39000 41300 57900 63800 86500 121000 131000 144000 325000
2020-08-11 18:30 15.28 428000 (1993) 38600 (1989) 104000 39000 41300 57900 63800 86500 121000 131000 144000 325000
2020-08-11 18:00 14.85 428000 (1993) 38600 (1989) 104000 39000 41300 57900 63800 86500 121000 131000 144000 325000
2020-08-11 17:30 14.87 428000 (1993) 38600 (1989) 104000 39000 41300 57900 63800 86500 121000 131000 144000 325000
2020-08-11 17:00 14.90 428000 (1993) 38600 (1989) 104000 39000 41300 57900 63800 86500 121000 131000 144000 325000
2020-08-11 16:30 14.91 428000 (1993) 38600 (1989) 104000 39000 41300 57900 63800 86500 121000 131000 144000 325000
2020-08-11 16:00 14.96 51000 428000 (1993) 38600 (1989) 104000 39000 41300 57900 63800 86500 121000 131000 144000 325000
2020-08-11 15:30 14.98 53600 428000 (1993) 38600 (1989) 104000 39000 41300 57900 63800 86500 121000 131000 144000 325000
2020-08-11 15:00 15.03 57900 428000 (1993) 38600 (1989) 104000 39000 41300 57900 63800 86500 121000 131000 144000 325000
2020-08-11 14:30 15.07 60700 428000 (1993) 38600 (1989) 104000 39000 41300 57900 63800 86500 121000 131000 144000 325000
2020-08-11 14:00 15.09 62200 428000 (1993) 38600 (1989) 104000 39000 41300 57900 63800 86500 121000 131000 144000 325000
2020-08-11 13:30 15.11 63900 428000 (1993) 38600 (1989) 104000 39000 41300 57900 63800 86500 121000 131000 144000 325000
2020-08-11 13:00 15.11 63900 428000 (1993) 38600 (1989) 104000 39000 41300 57900 63800 86500 121000 131000 144000 325000
2020-08-11 12:30 15.12 428000 (1993) 38600 (1989) 104000 39000 41300 57900 63800 86500 121000 131000 144000 325000
2020-08-11 12:00 15.14 428000 (1993) 38600 (1989) 104000 39000 41300 57900 63800 86500 121000 131000 144000 325000
2020-08-11 11:30 15.16 428000 (1993) 38600 (1989) 104000 39000 41300 57900 63800 86500 121000 131000 144000 325000
2020-08-11 11:00 15.18 69000 428000 (1993) 38600 (1989) 104000 39000 41300 57900 63800 86500 121000 131000 144000 325000
2020-08-11 10:30 15.19 69600 428000 (1993) 38600 (1989) 104000 39000 41300 57900 63800 86500 121000 131000 144000 325000
2020-08-11 10:00 15.21 71100 428000 (1993) 38600 (1989) 104000 39000 41300 57900 63800 86500 121000 131000 144000 325000
2020-08-11 09:30 15.25 428000 (1993) 38600 (1989) 104000 39000 41300 57900 63800 86500 121000 131000 144000 325000
2020-08-11 09:00 15.25 428000 (1993) 38600 (1989) 104000 39000 41300 57900 63800 86500 121000 131000 144000 325000
2020-08-11 08:30 15.24 73000 428000 (1993) 38600 (1989) 104000 39000 41300 57900 63800 86500 121000 131000 144000 325000
2020-08-11 08:00 15.22 69700 428000 (1993) 38600 (1989) 104000 39000 41300 57900 63800 86500 121000 131000 144000 325000
2020-08-11 07:30 15.23 70900 428000 (1993) 38600 (1989) 104000 39000 41300 57900 63800 86500 121000 131000 144000 325000
2020-08-11 07:00 15.22 70000 428000 (1993) 38600 (1989) 104000 39000 41300 57900 63800 86500 121000 131000 144000 325000
2020-08-11 06:30 15.21 428000 (1993) 38600 (1989) 104000 39000 41300 57900 63800 86500 121000 131000 144000 325000
2020-08-11 06:00 15.19 68400 428000 (1993) 38600 (1989) 104000 39000 41300 57900 63800 86500 121000 131000 144000 325000
2020-08-11 05:30 15.19 428000 (1993) 38600 (1989) 104000 39000 41300 57900 63800 86500 121000 131000 144000 325000
2020-08-11 05:00 15.15 65300 428000 (1993) 38600 (1989) 104000 39000 41300 57900 63800 86500 121000 131000 144000 325000
2020-08-11 04:30 15.17 428000 (1993) 38600 (1989) 104000 39000 41300 57900 63800 86500 121000 131000 144000 325000
2020-08-11 04:00 15.16 66500 428000 (1993) 38600 (1989) 104000 39000 41300 57900 63800 86500 121000 131000 144000 325000
2020-08-11 03:30 15.16 428000 (1993) 38600 (1989) 104000 39000 41300 57900 63800 86500 121000 131000 144000 325000
2020-08-11 03:00 15.13 64700 428000 (1993) 38600 (1989) 104000 39000 41300 57900 63800 86500 121000 131000 144000 325000
2020-08-11 02:30 15.12 428000 (1993) 38600 (1989) 104000 39000 41300 57900 63800 86500 121000 131000 144000 325000
2020-08-11 02:00 15.12 64700 428000 (1993) 38600 (1989) 104000 39000 41300 57900 63800 86500 121000 131000 144000 325000
2020-08-11 01:30 15.13 66300 428000 (1993) 38600 (1989) 104000 39000 41300 57900 63800 86500 121000 131000 144000 325000
2020-08-11 01:00 15.14 67300 428000 (1993) 38600 (1989) 104000 39000 41300 57900 63800 86500 121000 131000 144000 325000
2020-08-11 00:30 15.13 66000 428000 (1993) 38600 (1989) 104000 39000 41300 57900 63800 86500 121000 131000 144000 325000
2020-08-11 00:00 15.14 66900 428000 (1993) 38600 (1989) 104000 39000 41300 57900 63800 86500 121000 131000 144000 325000

A total of 158 rows are displayed for years 1987 through 2018.